createdAt,value
2019-03-09T00:02:48.600Z,5.60
2019-03-09T00:07:44.605Z,4.97
2019-03-09T00:12:40.595Z,4.53
2019-03-09T00:17:36.288Z,5.63
2019-03-09T00:22:32.432Z,5.57
2019-03-09T00:27:32.648Z,4.10
2019-03-09T00:32:28.605Z,5.63
2019-03-09T00:37:24.397Z,6.33
2019-03-09T00:42:20.817Z,6.23
2019-03-09T00:47:16.491Z,4.40
2019-03-09T00:52:12.334Z,5.10
2019-03-09T00:57:08.249Z,3.83
2019-03-09T01:02:04.043Z,4.17
2019-03-09T01:06:59.893Z,4.47
2019-03-09T01:11:55.925Z,4.50
2019-03-09T01:16:52.039Z,4.20
2019-03-09T01:21:47.967Z,3.80
2019-03-09T01:26:43.822Z,8.20
2019-03-09T01:31:39.507Z,4.73
2019-03-09T01:36:35.534Z,4.90
2019-03-09T01:41:31.612Z,5.13
2019-03-09T01:46:27.469Z,4.00
2019-03-09T01:51:23.138Z,6.10
2019-03-09T01:56:19.127Z,5.63
2019-03-09T02:01:14.911Z,4.50
2019-03-09T02:06:10.805Z,4.27
2019-03-09T02:11:06.573Z,4.67
2019-03-09T02:16:02.525Z,3.20
2019-03-09T02:20:58.211Z,4.07
2019-03-09T02:25:54.075Z,4.20
2019-03-09T02:30:49.758Z,4.73
2019-03-09T02:35:45.586Z,4.23
2019-03-09T02:40:41.377Z,3.97
2019-03-09T02:50:33.624Z,4.90
2019-03-09T02:55:29.299Z,6.63
2019-03-09T03:00:27.234Z,5.00
2019-03-09T03:05:23.037Z,3.40
2019-03-09T03:10:19.012Z,7.53
2019-03-09T03:15:31.914Z,3.27
2019-03-09T03:20:27.602Z,4.30
2019-03-09T03:25:23.456Z,4.10
2019-03-09T03:30:19.135Z,4.47
2019-03-09T03:35:15.152Z,4.97
2019-03-09T03:40:11.145Z,4.13
2019-03-09T03:45:11.024Z,7.20
2019-03-09T03:50:07.296Z,5.60
2019-03-09T03:55:04.583Z,5.43
2019-03-09T04:00:00.430Z,8.10
2019-03-09T04:04:56.801Z,5.13
2019-03-09T04:09:52.666Z,7.10
2019-03-09T04:14:48.804Z,6.47
2019-03-09T04:19:44.641Z,4.13
2019-03-09T04:24:40.707Z,7.20
2019-03-09T04:29:36.647Z,5.33
2019-03-09T04:34:32.601Z,7.20
2019-03-09T04:39:28.278Z,4.93
2019-03-09T04:44:24.146Z,3.87
2019-03-09T04:49:20.641Z,4.73
2019-03-09T04:54:16.784Z,4.37
2019-03-09T04:59:12.466Z,4.00
2019-03-09T05:04:10.323Z,4.17
2019-03-09T05:14:01.323Z,4.43
2019-03-09T05:18:57.027Z,6.47
2019-03-09T05:23:52.895Z,2.63
2019-03-09T05:28:48.587Z,4.53
2019-03-09T05:33:44.452Z,1.87
2019-03-09T05:38:40.141Z,4.73
2019-03-09T05:43:36.024Z,2.43
2019-03-09T05:48:32.056Z,2.20
2019-03-09T05:53:28.587Z,1.73
2019-03-09T05:58:24.268Z,3.10
2019-03-09T06:03:20.417Z,3.90
2019-03-09T06:08:16.155Z,2.63
2019-03-09T06:13:12.021Z,3.03
2019-03-09T06:18:07.696Z,4.93
2019-03-09T06:23:03.581Z,4.43
2019-03-09T06:27:59.253Z,4.47
2019-03-09T06:33:13.542Z,2.53
2019-03-09T06:38:23.378Z,3.50
2019-03-09T06:43:19.057Z,3.27
2019-03-09T06:48:15.041Z,4.80
2019-03-09T06:53:10.724Z,4.17
2019-03-09T06:58:06.610Z,6.90
2019-03-09T07:03:02.391Z,2.20
2019-03-09T07:07:58.811Z,3.90
2019-03-09T07:12:54.487Z,2.97
2019-03-09T07:17:51.059Z,3.23
2019-03-09T07:22:47.013Z,1.83
2019-03-09T07:27:42.881Z,2.77
2019-03-09T07:32:38.573Z,2.93
2019-03-09T07:37:34.704Z,2.93
2019-03-09T07:42:30.399Z,2.13
2019-03-09T07:47:26.284Z,1.80
2019-03-09T07:52:29.155Z,2.30
2019-03-09T07:57:24.841Z,3.60
2019-03-09T08:02:20.819Z,1.53
2019-03-09T08:07:16.667Z,2.60
2019-03-09T08:12:12.650Z,3.47
2019-03-09T08:17:08.326Z,2.80
2019-03-09T08:22:04.115Z,1.70
2019-03-09T08:26:59.798Z,2.97
2019-03-09T08:31:55.812Z,4.07
2019-03-09T08:36:51.546Z,4.80
2019-03-09T08:41:47.459Z,4.40
2019-03-09T08:46:43.215Z,3.47
2019-03-09T08:51:39.461Z,4.27
2019-03-09T08:56:35.245Z,3.83
2019-03-09T09:01:31.221Z,3.97
2019-03-09T09:06:27.874Z,3.73
2019-03-09T09:11:24.580Z,5.83
2019-03-09T09:16:20.267Z,2.63
2019-03-09T09:21:16.138Z,3.43
2019-03-09T09:26:11.819Z,2.07
2019-03-09T09:31:07.798Z,2.77
2019-03-09T09:36:03.823Z,1.97
2019-03-09T09:40:59.752Z,3.67
2019-03-09T09:45:55.547Z,2.47
2019-03-09T09:50:51.441Z,2.33
2019-03-09T09:55:47.179Z,1.47
2019-03-09T10:00:43.071Z,1.20
2019-03-09T10:05:38.963Z,3.13
2019-03-09T10:10:35.223Z,1.10
2019-03-09T10:15:31.672Z,1.93
2019-03-09T10:20:27.563Z,1.50
2019-03-09T10:25:23.345Z,0.90
2019-03-09T10:30:20.092Z,1.53
2019-03-09T10:35:15.926Z,0.80
2019-03-09T10:40:12.666Z,1.17
2019-03-09T10:45:15.224Z,0.90
2019-03-09T10:50:12.031Z,1.20
2019-03-09T10:55:15.116Z,1.40
2019-03-09T11:00:15.743Z,1.43
2019-03-09T11:05:11.502Z,1.50
2019-03-09T11:10:07.680Z,1.57
2019-03-09T11:15:05.484Z,1.33
2019-03-09T11:20:01.265Z,1.30
2019-03-09T11:25:03.462Z,1.03
2019-03-09T11:29:54.754Z,1.80
2019-03-09T11:34:50.639Z,1.73
2019-03-09T11:39:46.329Z,1.97
2019-03-09T11:44:42.175Z,0.90
2019-03-09T11:49:37.839Z,1.00
2019-03-09T11:54:33.575Z,1.80
2019-03-09T11:59:29.246Z,0.90
2019-03-09T12:04:25.350Z,1.50
2019-03-09T12:09:21.131Z,1.77
2019-03-09T12:14:17.844Z,1.37
2019-03-09T12:19:13.617Z,1.53
2019-03-09T12:24:16.450Z,3.33
2019-03-09T12:29:07.606Z,3.13
2019-03-09T12:34:03.791Z,1.17
2019-03-09T12:38:59.673Z,1.30
2019-03-09T12:43:55.777Z,0.87
2019-03-09T12:48:51.449Z,1.57
2019-03-09T12:53:47.554Z,1.67
2019-03-09T12:58:43.239Z,2.63
2019-03-09T13:03:39.004Z,1.37
2019-03-09T13:08:34.678Z,0.87
2019-03-09T13:13:31.955Z,0.90
2019-03-09T13:18:28.314Z,1.50
2019-03-09T13:28:19.935Z,0.80
2019-03-09T13:33:15.600Z,1.80
2019-03-09T13:38:11.537Z,1.20
2019-03-09T13:43:07.298Z,2.10
2019-03-09T13:48:03.154Z,1.30
2019-03-09T13:52:58.836Z,2.00
2019-03-09T13:57:54.714Z,0.93
2019-03-09T14:02:50.391Z,1.20
2019-03-09T14:07:46.492Z,1.60
2019-03-09T14:12:42.178Z,1.10
2019-03-09T14:17:38.144Z,1.50
2019-03-09T14:22:33.819Z,1.23
2019-03-09T14:27:29.665Z,1.20
2019-03-09T14:32:25.349Z,1.20
2019-03-09T14:37:21.449Z,1.50
2019-03-09T14:42:17.160Z,1.00
2019-03-09T14:47:13.029Z,1.50
2019-03-09T14:52:08.709Z,1.20
2019-03-09T14:57:04.593Z,0.90
2019-03-09T15:02:00.269Z,1.27
2019-03-09T15:06:56.258Z,2.87
2019-03-09T15:11:52.309Z,1.07
2019-03-09T15:16:48.194Z,1.10
2019-03-09T15:21:44.790Z,0.97
2019-03-09T15:26:40.767Z,0.67
2019-03-09T15:31:36.444Z,1.10
2019-03-09T15:36:32.366Z,1.47
2019-03-09T15:41:28.045Z,4.03
2019-03-09T15:46:23.930Z,0.73
2019-03-09T15:51:19.613Z,0.47
2019-03-09T15:56:15.480Z,0.80
2019-03-09T16:01:11.423Z,1.93
2019-03-09T16:06:07.424Z,1.23
2019-03-09T16:11:03.207Z,0.93
2019-03-09T16:15:59.407Z,1.27
2019-03-09T16:20:55.292Z,1.27
2019-03-09T16:25:51.391Z,1.37
2019-03-09T16:30:47.085Z,0.77
2019-03-09T16:35:42.948Z,0.90
2019-03-09T16:40:40.774Z,1.50
2019-03-09T16:45:36.411Z,1.73
2019-03-09T16:50:32.351Z,1.60
2019-03-09T16:55:28.230Z,2.00
2019-03-09T17:00:23.901Z,2.20
2019-03-09T17:05:19.765Z,1.83
2019-03-09T17:10:15.855Z,1.00
2019-03-09T17:15:21.578Z,0.77
2019-03-09T17:20:17.446Z,0.67
2019-03-09T17:25:14.184Z,2.03
2019-03-09T17:30:17.825Z,1.33
2019-03-09T17:35:13.517Z,1.87
2019-03-09T17:40:10.411Z,1.57
2019-03-09T17:45:08.040Z,1.20
2019-03-09T17:50:06.051Z,1.13
2019-03-09T17:55:01.728Z,1.40
2019-03-09T17:59:57.671Z,1.37
2019-03-09T18:04:53.343Z,1.40
2019-03-09T18:09:49.209Z,1.33
2019-03-09T18:14:45.104Z,2.03
2019-03-09T18:19:41.070Z,3.00
2019-03-09T18:24:36.858Z,1.50
2019-03-09T18:29:33.353Z,1.23
2019-03-09T18:34:29.052Z,1.70
2019-03-09T18:39:24.999Z,1.37
2019-03-09T18:44:20.697Z,3.23
2019-03-09T18:49:16.539Z,1.80
2019-03-09T18:54:12.508Z,1.77
2019-03-09T18:59:08.704Z,1.90
2019-03-09T19:04:04.373Z,2.60
2019-03-09T19:09:00.373Z,2.23
2019-03-09T19:13:56.309Z,2.23
2019-03-09T19:18:52.218Z,2.80
2019-03-09T19:23:48.123Z,3.10
2019-03-09T19:28:44.029Z,3.27
2019-03-09T19:33:39.708Z,2.83
2019-03-09T19:38:35.849Z,6.20
2019-03-09T19:43:31.514Z,3.43
2019-03-09T19:48:27.377Z,3.87
2019-03-09T19:53:23.054Z,5.43
2019-03-09T19:58:19.144Z,5.33
2019-03-09T20:03:14.812Z,5.17
2019-03-09T20:08:10.929Z,4.47
2019-03-09T20:13:06.612Z,8.37
2019-03-09T20:18:02.636Z,5.80
2019-03-09T20:22:58.395Z,5.27
2019-03-09T20:27:56.085Z,4.63
2019-03-09T20:32:51.779Z,3.87
2019-03-09T20:37:47.777Z,3.93
2019-03-09T20:42:43.456Z,5.43
2019-03-09T20:47:39.308Z,5.33
2019-03-09T20:52:34.967Z,3.90
2019-03-09T20:57:31.108Z,4.77
2019-03-09T21:02:26.795Z,6.70
2019-03-09T21:07:22.569Z,7.03
2019-03-09T21:12:18.324Z,7.80
2019-03-09T21:17:14.450Z,5.20
2019-03-09T21:22:10.135Z,10.27
2019-03-09T21:27:06.335Z,12.63
2019-03-09T21:32:02.265Z,8.83
2019-03-09T21:36:58.139Z,7.80
2019-03-09T21:41:53.854Z,10.63
2019-03-09T21:46:49.687Z,10.80
2019-03-09T21:51:45.673Z,9.73
2019-03-09T21:56:41.585Z,9.47
2019-03-09T22:01:37.281Z,11.80
2019-03-09T22:06:33.018Z,12.50
2019-03-09T22:11:28.698Z,10.00
2019-03-09T22:16:24.839Z,13.03
2019-03-09T22:21:20.514Z,17.73
2019-03-09T22:26:16.262Z,11.80
2019-03-09T22:31:12.245Z,7.87
2019-03-09T22:36:08.378Z,12.50
2019-03-09T22:41:04.458Z,9.37
2019-03-09T22:46:00.609Z,10.90
2019-03-09T22:50:56.573Z,9.93
2019-03-09T22:55:52.638Z,10.23
2019-03-09T23:00:48.429Z,9.17
2019-03-09T23:05:44.357Z,10.53
2019-03-09T23:10:40.138Z,10.20
2019-03-09T23:15:36.024Z,6.57
2019-03-09T23:20:31.707Z,8.43
2019-03-09T23:25:27.573Z,9.73
2019-03-09T23:30:23.422Z,10.70
2019-03-09T23:35:19.631Z,9.20
2019-03-09T23:40:16.310Z,7.83
2019-03-09T23:45:13.279Z,9.00
2019-03-09T23:50:10.344Z,8.63
2019-03-09T23:55:06.619Z,8.40
